ADDS METAR Data INFO
IDs: Format: Raw Decoded Include TAF

Data at: 0341 UTC 24 Feb 2017

METAR for:KHLX (Hillsville/Twin Cnty, VA, US)
Text:KHLX 240335Z AUTO 00000KT 10SM CLR 13/11 A2994 RMK AO2 T01330110
Temperature: 13.3°C ( 56°F)
Dewpoint: 11.0°C ( 52°F) [RH = 86%]
Pressure (altimeter):29.94 inches Hg (1014.0 mb)
Winds:calm
Visibility:10 or more sm (16+ km)
Ceiling:at least 12,000 feet AGL
Clouds:sky clear below 12,000 feet AGL
QC Flag:automated observation with no human augmentation


Page loaded:  03:41 UTC  |   07:41 PM Pacific  |   08:41 PM Mountain  |   09:41 PM Central  |   10:41 PM Eastern

 

ADVISORIES

FORECASTS

FORECASTS

OBSERVATIONS

USER TOOLS

ABOUT US